createdAt,value
2019-04-16T00:02:32.509Z,6.40
2019-04-16T00:05:08.244Z,6.39
2019-04-16T00:07:46.013Z,6.41
2019-04-16T00:10:35.230Z,6.28
2019-04-16T00:13:33.440Z,6.19
2019-04-16T00:16:05.435Z,6.07
2019-04-16T00:18:35.572Z,6.19
2019-04-16T00:21:24.660Z,6.14
2019-04-16T00:24:18.133Z,6.09
2019-04-16T00:26:46.407Z,6.11
2019-04-16T00:29:16.680Z,6.10
2019-04-16T00:32:09.786Z,6.08
2019-04-16T00:34:44.562Z,6.07
2019-04-16T00:37:11.952Z,5.81
2019-04-16T00:39:42.143Z,5.62
2019-04-16T00:42:12.244Z,5.77
2019-04-16T00:44:42.470Z,5.72
2019-04-16T00:47:12.715Z,5.72
2019-04-16T00:49:42.838Z,5.71
2019-04-16T00:52:12.946Z,5.72
2019-04-16T00:54:43.244Z,5.71
2019-04-16T00:57:17.679Z,5.55
2019-04-16T00:59:48.686Z,5.60
2019-04-16T01:02:18.811Z,5.54
2019-04-16T01:04:51.674Z,5.36
2019-04-16T01:07:21.792Z,5.55
2019-04-16T01:09:51.902Z,5.64
2019-04-16T01:12:22.030Z,5.55
2019-04-16T01:14:52.204Z,5.36
2019-04-16T01:17:22.365Z,5.45
2019-04-16T01:19:52.505Z,5.44
2019-04-16T01:22:22.615Z,5.42
2019-04-16T01:24:52.796Z,5.46
2019-04-16T01:27:31.264Z,5.31
2019-04-16T01:30:05.099Z,5.13
2019-04-16T01:32:51.076Z,5.24
2019-04-16T01:35:52.732Z,5.12
2019-04-16T01:38:41.957Z,5.15
2019-04-16T01:41:14.089Z,4.98
2019-04-16T01:43:44.169Z,4.88
2019-04-16T01:46:14.314Z,5.07
2019-04-16T01:48:44.433Z,4.89
2019-04-16T01:51:16.303Z,4.84
2019-04-16T01:53:49.398Z,4.66
2019-04-16T01:56:19.763Z,4.65
2019-04-16T01:58:49.968Z,4.64
2019-04-16T02:01:20.109Z,4.65
2019-04-16T02:03:50.230Z,4.53
2019-04-16T02:06:20.345Z,4.67
2019-04-16T02:08:50.452Z,4.66
2019-04-16T02:11:20.618Z,4.70
2019-04-16T02:13:50.731Z,4.73
2019-04-16T02:16:26.349Z,4.49
2019-04-16T02:19:01.286Z,4.41
2019-04-16T02:21:31.597Z,4.48
2019-04-16T02:24:01.700Z,4.50
2019-04-16T02:26:32.700Z,4.38
2019-04-16T02:29:02.827Z,4.31
2019-04-16T02:31:42.484Z,4.29
2019-04-16T02:34:15.380Z,4.41
2019-04-16T02:36:45.539Z,4.23
2019-04-16T02:39:15.624Z,4.10
2019-04-16T02:41:45.749Z,4.16
2019-04-16T02:44:17.057Z,4.21
2019-04-16T02:46:48.626Z,4.18
2019-04-16T02:49:24.416Z,3.99
2019-04-16T02:52:16.597Z,4.02
2019-04-16T02:54:54.963Z,4.03
2019-04-16T02:57:46.827Z,3.91
2019-04-16T03:00:35.979Z,3.98
2019-04-16T03:03:12.882Z,3.90
2019-04-16T03:05:48.041Z,3.96
2019-04-16T03:08:20.341Z,3.82
2019-04-16T03:10:50.446Z,4.04
2019-04-16T03:13:23.328Z,4.04
2019-04-16T03:16:10.098Z,3.80
2019-04-16T03:18:49.461Z,3.85
2019-04-16T03:21:19.910Z,3.68
2019-04-16T03:23:52.854Z,3.64
2019-04-16T03:26:22.942Z,3.62
2019-04-16T03:28:55.655Z,3.80
2019-04-16T03:31:25.091Z,3.74
2019-04-16T03:34:02.510Z,3.62
2019-04-16T03:36:32.323Z,3.43
2019-04-16T03:39:04.092Z,3.33
2019-04-16T03:41:35.399Z,3.53
2019-04-16T03:44:06.172Z,3.50
2019-04-16T03:46:36.330Z,3.44
2019-04-16T03:49:07.392Z,3.31
2019-04-16T03:51:40.514Z,3.26
2019-04-16T03:54:12.286Z,3.43
2019-04-16T03:56:44.886Z,3.26
2019-04-16T03:59:16.400Z,3.30
2019-04-16T04:01:46.888Z,3.37
2019-04-16T04:04:17.051Z,3.32
2019-04-16T04:06:53.638Z,3.36
2019-04-16T04:09:24.188Z,3.30
2019-04-16T04:11:54.282Z,3.20
2019-04-16T04:14:24.528Z,3.19
2019-04-16T04:16:54.668Z,3.15
2019-04-16T04:19:32.076Z,3.17
2019-04-16T04:22:02.215Z,3.11
2019-04-16T04:24:32.405Z,2.98
2019-04-16T04:27:02.493Z,2.94
2019-04-16T04:29:34.827Z,2.99
2019-04-16T04:32:07.066Z,2.94
2019-04-16T04:34:38.342Z,3.05
2019-04-16T04:37:08.716Z,3.05
2019-04-16T04:39:43.631Z,2.97
2019-04-16T04:42:11.736Z,3.02
2019-04-16T04:44:41.899Z,2.97
2019-04-16T04:47:12.020Z,2.89
2019-04-16T04:49:42.141Z,3.05
2019-04-16T04:52:14.471Z,3.02
2019-04-16T04:54:44.248Z,2.73
2019-04-16T04:57:14.365Z,2.70
2019-04-16T04:59:44.493Z,2.81
2019-04-16T05:02:15.455Z,3.11
2019-04-16T05:04:57.422Z,3.13
2019-04-16T05:07:29.034Z,3.00
2019-04-16T05:09:59.682Z,3.03
2019-04-16T05:12:30.864Z,2.99
2019-04-16T05:15:03.768Z,3.08
2019-04-16T05:17:35.532Z,3.04
2019-04-16T05:20:05.095Z,2.92
2019-04-16T05:22:35.205Z,3.07
2019-04-16T05:25:06.078Z,2.89
2019-04-16T05:27:39.943Z,2.91
2019-04-16T05:30:08.274Z,3.14
2019-04-16T05:32:38.446Z,3.16
2019-04-16T05:35:10.299Z,3.31
2019-04-16T05:37:40.618Z,3.31
2019-04-16T05:40:10.770Z,3.49
2019-04-16T05:42:43.321Z,3.27
2019-04-16T05:45:13.664Z,3.33
2019-04-16T05:47:48.742Z,3.28
2019-04-16T05:50:15.768Z,3.25
2019-04-16T05:52:45.875Z,3.32
2019-04-16T05:55:49.853Z,3.36
2019-04-16T05:58:19.620Z,3.63
2019-04-16T06:01:17.642Z,3.59
2019-04-16T06:03:52.838Z,3.66
2019-04-16T06:06:20.121Z,3.52
2019-04-16T06:08:50.275Z,3.74
2019-04-16T06:11:28.645Z,3.81
2019-04-16T06:14:06.433Z,3.86
2019-04-16T06:16:59.233Z,3.77
2019-04-16T06:19:51.127Z,4.05
2019-04-16T06:22:46.312Z,4.07
2019-04-16T06:25:34.131Z,4.18
2019-04-16T06:28:33.081Z,3.94
2019-04-16T06:31:20.743Z,4.11
2019-04-16T06:33:59.307Z,4.01
2019-04-16T06:36:52.117Z,4.01
2019-04-16T06:39:34.081Z,4.23
2019-04-16T06:42:29.315Z,4.48
2019-04-16T06:45:04.915Z,4.49
2019-04-16T06:47:52.981Z,4.42
2019-04-16T06:50:40.598Z,4.49
2019-04-16T06:53:30.910Z,4.43
2019-04-16T06:56:25.905Z,4.59
2019-04-16T06:59:01.411Z,4.68
2019-04-16T07:01:50.559Z,4.86
2019-04-16T07:04:39.647Z,4.99
2019-04-16T07:07:17.683Z,5.05
2019-04-16T07:09:57.004Z,5.21
2019-04-16T07:12:30.599Z,5.34
2019-04-16T07:15:00.712Z,5.27
2019-04-16T07:17:33.764Z,5.19
2019-04-16T07:20:04.595Z,5.52
2019-04-16T07:22:34.822Z,5.64
2019-04-16T07:25:05.934Z,5.82
2019-04-16T07:27:52.729Z,5.93
2019-04-16T07:30:59.143Z,6.03
2019-04-16T07:33:39.620Z,6.14
2019-04-16T07:36:27.972Z,6.06
2019-04-16T07:39:28.218Z,6.13
2019-04-16T07:42:10.606Z,6.13
2019-04-16T07:45:05.237Z,6.42
2019-04-16T07:47:57.427Z,6.48
2019-04-16T07:50:53.779Z,6.76
2019-04-16T07:53:47.423Z,6.80
2019-04-16T07:56:20.573Z,6.94
2019-04-16T07:58:50.725Z,7.04
2019-04-16T08:01:20.901Z,7.14
2019-04-16T08:03:51.040Z,7.28
2019-04-16T08:06:22.109Z,7.40
2019-04-16T08:08:53.987Z,7.55
2019-04-16T08:11:24.044Z,7.63
2019-04-16T08:13:54.517Z,7.79
2019-04-16T08:16:24.646Z,7.88
2019-04-16T08:18:54.856Z,7.92
2019-04-16T08:21:25.060Z,7.97
2019-04-16T08:24:17.282Z,8.20
2019-04-16T08:26:47.386Z,8.37
2019-04-16T08:29:17.510Z,8.49
2019-04-16T08:31:49.022Z,8.64
2019-04-16T08:34:19.182Z,8.51
2019-04-16T08:36:49.312Z,8.67
2019-04-16T08:39:19.436Z,8.89
2019-04-16T08:41:52.479Z,9.04
2019-04-16T08:44:21.545Z,9.14
2019-04-16T08:46:51.804Z,9.23
2019-04-16T08:49:22.969Z,9.09
2019-04-16T08:51:53.421Z,9.46
2019-04-16T08:54:23.534Z,9.67
2019-04-16T08:56:53.655Z,9.73
2019-04-16T08:59:23.786Z,9.85
2019-04-16T09:01:54.514Z,9.94
2019-04-16T09:04:25.386Z,9.92
2019-04-16T09:07:09.650Z,10.07
2019-04-16T09:09:38.311Z,10.10
2019-04-16T09:12:09.818Z,10.20
2019-04-16T09:14:44.484Z,10.16
2019-04-16T09:17:26.696Z,10.38
2019-04-16T09:20:04.824Z,10.59
2019-04-16T09:22:47.860Z,10.82
2019-04-16T09:25:23.042Z,10.77
2019-04-16T09:27:57.230Z,10.71
2019-04-16T09:30:49.709Z,10.62
2019-04-16T09:33:25.102Z,10.91
2019-04-16T09:36:04.202Z,11.05
2019-04-16T09:38:53.309Z,11.27
2019-04-16T09:41:28.681Z,11.52
2019-04-16T09:43:59.822Z,11.47
2019-04-16T09:46:49.739Z,11.62
2019-04-16T09:49:04.725Z,11.59
2019-04-16T09:51:35.241Z,11.67
2019-04-16T09:54:05.389Z,11.62
2019-04-16T09:56:35.540Z,11.68
2019-04-16T09:59:18.982Z,11.71
2019-04-16T10:01:52.102Z,11.88
2019-04-16T10:04:22.251Z,12.01
2019-04-16T10:06:52.602Z,12.01
2019-04-16T10:09:23.176Z,12.20
2019-04-16T10:11:53.579Z,12.30
2019-04-16T10:14:23.810Z,12.25
2019-04-16T10:16:54.005Z,12.29
2019-04-16T10:19:24.172Z,12.26
2019-04-16T10:21:54.745Z,12.31
2019-04-16T10:24:43.533Z,12.28
2019-04-16T10:27:19.988Z,12.46
2019-04-16T10:29:50.111Z,12.51
2019-04-16T10:32:20.273Z,12.59
2019-04-16T10:34:50.470Z,12.57
2019-04-16T10:37:20.673Z,12.56
2019-04-16T10:40:13.043Z,12.50
2019-04-16T10:43:05.111Z,12.68
2019-04-16T10:45:54.253Z,12.65
2019-04-16T10:48:46.471Z,12.83
2019-04-16T10:51:31.256Z,12.96
2019-04-16T10:54:10.067Z,13.01
2019-04-16T10:56:59.242Z,12.97
2019-04-16T10:59:57.283Z,13.04
2019-04-16T11:02:48.160Z,13.09
2019-04-16T11:05:22.448Z,13.05
2019-04-16T11:07:52.746Z,13.12
2019-04-16T11:10:22.932Z,13.13
2019-04-16T11:12:53.351Z,13.20
2019-04-16T11:15:25.322Z,12.98
2019-04-16T11:17:55.467Z,13.23
2019-04-16T11:20:25.729Z,13.37
2019-04-16T11:22:55.930Z,13.45
2019-04-16T11:25:28.043Z,13.46
2019-04-16T11:27:59.846Z,13.58
2019-04-16T11:30:51.728Z,13.64
2019-04-16T11:33:21.868Z,13.72
2019-04-16T11:35:53.152Z,13.61
2019-04-16T11:38:24.020Z,13.81
2019-04-16T11:40:54.195Z,13.82
2019-04-16T11:43:24.327Z,13.88
2019-04-16T11:45:54.628Z,13.92
2019-04-16T11:48:24.731Z,13.79
2019-04-16T11:50:55.039Z,13.89
2019-04-16T11:53:25.247Z,14.00
2019-04-16T11:55:55.615Z,14.06
2019-04-16T11:58:51.501Z,13.90
2019-04-16T12:01:55.870Z,13.90
2019-04-16T12:04:42.548Z,13.92
2019-04-16T12:07:24.958Z,14.06
2019-04-16T12:10:12.329Z,14.15
2019-04-16T12:13:03.447Z,14.09
2019-04-16T12:15:42.093Z,14.13
2019-04-16T12:18:26.100Z,14.06
2019-04-16T12:21:05.068Z,14.20
2019-04-16T12:23:55.464Z,14.18
2019-04-16T12:26:50.681Z,14.25
2019-04-16T12:29:39.878Z,14.33
2019-04-16T12:32:26.849Z,14.25
2019-04-16T12:35:15.233Z,14.31
2019-04-16T12:38:03.375Z,14.37
2019-04-16T12:40:42.274Z,14.40
2019-04-16T12:43:27.659Z,14.41
2019-04-16T12:46:28.802Z,14.46
2019-04-16T12:49:36.454Z,14.47
2019-04-16T12:52:37.679Z,14.60
2019-04-16T12:55:39.106Z,14.58
2019-04-16T12:58:19.975Z,14.59
2019-04-16T13:01:10.240Z,14.51
2019-04-16T13:03:57.953Z,14.56
2019-04-16T13:06:39.338Z,14.59
2019-04-16T13:09:37.452Z,14.58
2019-04-16T13:12:12.758Z,14.76
2019-04-16T13:15:06.650Z,14.77
2019-04-16T13:17:54.878Z,14.74
2019-04-16T13:20:44.192Z,14.72
2019-04-16T13:23:24.666Z,14.67
2019-04-16T13:26:13.231Z,14.66
2019-04-16T13:28:45.923Z,14.72
2019-04-16T13:31:22.203Z,14.90
2019-04-16T13:33:53.581Z,14.96
2019-04-16T13:36:26.958Z,14.99
2019-04-16T13:39:01.285Z,15.03
2019-04-16T13:41:33.160Z,15.11
2019-04-16T13:44:09.041Z,15.16
2019-04-16T13:46:39.051Z,15.04
2019-04-16T13:49:31.698Z,15.03
2019-04-16T13:52:01.413Z,14.98
2019-04-16T13:54:47.825Z,15.01
2019-04-16T13:57:19.933Z,15.14
2019-04-16T14:00:27.684Z,15.10
2019-04-16T14:03:04.917Z,15.15
2019-04-16T14:05:38.435Z,15.29
2019-04-16T14:08:07.035Z,15.28
2019-04-16T14:10:37.396Z,15.34
2019-04-16T14:13:12.090Z,15.39
2019-04-16T14:15:40.650Z,15.51
2019-04-16T14:18:11.928Z,15.53
2019-04-16T14:20:42.239Z,15.45
2019-04-16T14:23:13.405Z,15.30
2019-04-16T14:25:43.829Z,15.38
2019-04-16T14:28:13.999Z,15.39
2019-04-16T14:30:48.072Z,15.44
2019-04-16T14:33:30.683Z,15.40
2019-04-16T14:36:00.844Z,15.44
2019-04-16T14:38:38.975Z,15.39
2019-04-16T14:41:11.886Z,15.44
2019-04-16T14:43:46.579Z,15.51
2019-04-16T14:46:16.678Z,15.49
2019-04-16T14:48:46.881Z,15.51
2019-04-16T14:51:17.099Z,15.56
2019-04-16T14:54:07.466Z,15.65
2019-04-16T14:56:42.792Z,15.71
2019-04-16T14:59:34.113Z,15.68
2019-04-16T15:02:07.222Z,15.72
2019-04-16T15:04:57.763Z,15.75
2019-04-16T15:07:52.393Z,15.76
2019-04-16T15:10:40.614Z,15.77
2019-04-16T15:13:35.131Z,15.88
2019-04-16T15:16:30.657Z,16.00
2019-04-16T15:19:18.193Z,16.07
2019-04-16T15:22:06.568Z,16.22
2019-04-16T15:24:58.116Z,16.24
2019-04-16T15:27:36.427Z,16.29
2019-04-16T15:30:28.315Z,16.28
2019-04-16T15:33:10.779Z,16.32
2019-04-16T15:35:46.720Z,16.40
2019-04-16T15:38:35.427Z,16.89
2019-04-16T15:41:32.071Z,17.23
2019-04-16T15:44:23.684Z,17.35
2019-04-16T15:47:14.277Z,17.73
2019-04-16T15:50:17.021Z,18.19
2019-04-16T15:53:02.695Z,18.09
2019-04-16T15:55:41.883Z,18.39
2019-04-16T15:58:21.443Z,18.49
2019-04-16T16:01:00.503Z,18.70
2019-04-16T16:03:45.776Z,18.61
2019-04-16T16:06:21.075Z,18.60
2019-04-16T16:09:04.269Z,18.49
2019-04-16T16:11:44.521Z,18.61
2019-04-16T16:14:14.826Z,18.53
2019-04-16T16:16:47.831Z,18.33
2019-04-16T16:19:17.024Z,18.73
2019-04-16T16:21:47.524Z,18.60
2019-04-16T16:24:17.942Z,18.78
2019-04-16T16:26:48.122Z,18.93
2019-04-16T16:29:19.431Z,19.30
2019-04-16T16:31:49.638Z,19.34
2019-04-16T16:34:19.902Z,19.69
2019-04-16T16:36:50.020Z,19.79
2019-04-16T16:39:20.161Z,19.68
2019-04-16T16:41:50.692Z,19.42
2019-04-16T16:44:20.887Z,19.55
2019-04-16T16:47:08.519Z,19.36
2019-04-16T16:49:39.000Z,19.20
2019-04-16T16:52:34.416Z,19.43
2019-04-16T16:55:06.594Z,19.24
2019-04-16T16:57:42.094Z,18.90
2019-04-16T17:00:34.436Z,19.01
2019-04-16T17:03:20.870Z,18.71
2019-04-16T17:05:51.692Z,18.71
2019-04-16T17:08:22.022Z,18.84
2019-04-16T17:10:52.225Z,18.85
2019-04-16T17:13:22.482Z,18.52
2019-04-16T17:15:52.678Z,18.44
2019-04-16T17:18:22.910Z,18.26
2019-04-16T17:20:53.112Z,18.11
2019-04-16T17:23:25.590Z,17.64
2019-04-16T17:25:57.864Z,16.89
2019-04-16T17:28:29.654Z,16.56
2019-04-16T17:30:59.822Z,16.06
2019-04-16T17:33:30.090Z,16.10
2019-04-16T17:36:00.646Z,15.78
2019-04-16T17:38:33.864Z,15.70
2019-04-16T17:41:05.570Z,15.40
2019-04-16T17:44:02.089Z,15.28
2019-04-16T17:46:43.950Z,15.11
2019-04-16T17:49:25.613Z,14.97
2019-04-16T17:52:05.320Z,14.72
2019-04-16T17:54:38.578Z,14.65
2019-04-16T17:57:29.857Z,14.48
2019-04-16T18:00:16.313Z,14.39
2019-04-16T18:03:17.593Z,14.27
2019-04-16T18:06:06.761Z,14.17
2019-04-16T18:08:55.880Z,14.07
2019-04-16T18:11:56.923Z,13.95
2019-04-16T18:14:43.964Z,13.94
2019-04-16T18:17:46.360Z,13.92
2019-04-16T18:20:28.548Z,13.82
2019-04-16T18:23:18.356Z,13.62
2019-04-16T18:26:10.235Z,13.50
2019-04-16T18:29:02.097Z,13.50
2019-04-16T18:31:58.839Z,13.44
2019-04-16T18:34:53.960Z,13.45
2019-04-16T18:37:38.061Z,13.35
2019-04-16T18:40:45.812Z,13.18
2019-04-16T18:43:35.820Z,13.16
2019-04-16T18:46:45.529Z,13.00
2019-04-16T18:49:18.965Z,12.94
2019-04-16T18:51:50.104Z,12.77
2019-04-16T18:54:20.672Z,12.78
2019-04-16T18:56:53.317Z,12.76
2019-04-16T18:59:25.263Z,12.54
2019-04-16T19:02:01.501Z,12.52
2019-04-16T19:04:31.757Z,12.50
2019-04-16T19:07:02.067Z,12.39
2019-04-16T19:09:32.411Z,12.37
2019-04-16T19:12:02.600Z,12.30
2019-04-16T19:14:36.353Z,12.21
2019-04-16T19:17:04.809Z,12.24
2019-04-16T19:19:34.975Z,12.18
2019-04-16T19:22:05.271Z,12.13
2019-04-16T19:24:35.500Z,11.90
2019-04-16T19:27:12.485Z,11.87
2019-04-16T19:29:45.508Z,11.84
2019-04-16T19:32:18.023Z,11.79
2019-04-16T19:34:49.910Z,11.76
2019-04-16T19:37:20.077Z,11.75
2019-04-16T19:39:50.270Z,11.73
2019-04-16T19:42:21.551Z,11.73
2019-04-16T19:44:51.746Z,11.66
2019-04-16T19:47:23.370Z,11.59
2019-04-16T19:49:53.825Z,11.56
2019-04-16T19:52:24.084Z,11.55
2019-04-16T19:54:54.304Z,11.37
2019-04-16T19:57:24.496Z,11.38
2019-04-16T19:59:55.074Z,11.34
2019-04-16T20:02:25.332Z,11.30
2019-04-16T20:04:55.627Z,11.29
2019-04-16T20:07:25.743Z,11.17
2019-04-16T20:09:57.087Z,11.20
2019-04-16T20:12:28.013Z,11.16
2019-04-16T20:14:59.039Z,11.22
2019-04-16T20:17:29.266Z,11.12
2019-04-16T20:19:59.841Z,11.07
2019-04-16T20:22:31.179Z,10.98
2019-04-16T20:25:01.330Z,10.74
2019-04-16T20:27:31.557Z,10.79
2019-04-16T20:30:01.797Z,10.81
2019-04-16T20:32:34.354Z,10.78
2019-04-16T20:35:05.901Z,10.71
2019-04-16T20:37:39.085Z,10.70
2019-04-16T20:40:09.322Z,10.67
2019-04-16T20:42:40.723Z,10.64
2019-04-16T20:45:11.135Z,10.59
2019-04-16T20:47:41.316Z,10.61
2019-04-16T20:50:13.882Z,10.48
2019-04-16T20:52:44.095Z,10.50
2019-04-16T20:55:16.079Z,10.38
2019-04-16T20:57:46.253Z,10.44
2019-04-16T21:00:21.899Z,10.27
2019-04-16T21:02:53.187Z,10.32
2019-04-16T21:05:23.311Z,10.28
2019-04-16T21:07:54.221Z,10.31
2019-04-16T21:10:24.416Z,10.31
2019-04-16T21:12:55.113Z,10.19
2019-04-16T21:15:27.499Z,10.27
2019-04-16T21:17:57.879Z,10.25
2019-04-16T21:20:27.998Z,10.19
2019-04-16T21:23:01.595Z,10.17
2019-04-16T21:25:29.965Z,10.10
2019-04-16T21:28:19.143Z,10.13
2019-04-16T21:30:52.234Z,10.10
2019-04-16T21:33:36.638Z,9.99
2019-04-16T21:36:07.895Z,10.03
2019-04-16T21:38:46.108Z,9.93
2019-04-16T21:41:16.231Z,9.94
2019-04-16T21:43:46.409Z,9.86
2019-04-16T21:46:20.195Z,9.91
2019-04-16T21:48:48.376Z,9.85
2019-04-16T21:51:23.965Z,9.87
2019-04-16T21:53:51.687Z,9.74
2019-04-16T21:56:21.851Z,9.64
2019-04-16T21:58:55.010Z,9.71
2019-04-16T22:01:38.166Z,9.69
2019-04-16T22:04:14.767Z,9.70
2019-04-16T22:06:45.032Z,9.62
2019-04-16T22:09:15.450Z,9.60
2019-04-16T22:11:46.053Z,9.55
2019-04-16T22:14:16.219Z,9.53
2019-04-16T22:16:46.323Z,9.48
2019-04-16T22:19:16.472Z,9.48
2019-04-16T22:21:46.623Z,9.48
2019-04-16T22:24:19.715Z,9.29
2019-04-16T22:26:49.603Z,9.36
2019-04-16T22:29:19.854Z,9.18
2019-04-16T22:31:52.783Z,9.23
2019-04-16T22:34:22.554Z,9.24
2019-04-16T22:36:52.746Z,9.14
2019-04-16T22:39:41.679Z,9.16
2019-04-16T22:42:29.697Z,9.24
2019-04-16T22:45:17.488Z,9.13
2019-04-16T22:47:48.088Z,9.11
2019-04-16T22:50:18.588Z,9.12
2019-04-16T22:52:48.708Z,9.09
2019-04-16T22:55:24.568Z,9.09
2019-04-16T22:57:50.712Z,9.04
2019-04-16T23:00:33.328Z,9.05
2019-04-16T23:03:03.520Z,9.03
2019-04-16T23:05:33.677Z,8.93
2019-04-16T23:10:45.597Z,8.82
2019-04-16T23:13:15.746Z,8.75
2019-04-16T23:15:45.943Z,8.81
2019-04-16T23:18:18.223Z,8.81
2019-04-16T23:20:49.066Z,8.71
2019-04-16T23:23:19.435Z,8.73
2019-04-16T23:25:50.516Z,8.66
2019-04-16T23:28:20.679Z,8.71
2019-04-16T23:30:51.767Z,8.61
2019-04-16T23:33:22.028Z,8.54
2019-04-16T23:35:52.260Z,8.57
2019-04-16T23:38:22.379Z,8.53
2019-04-16T23:40:53.994Z,8.52
2019-04-16T23:43:34.482Z,8.48
2019-04-16T23:46:22.922Z,8.43
2019-04-16T23:49:16.482Z,8.38
2019-04-16T23:52:01.591Z,8.23
2019-04-16T23:54:32.932Z,8.37
2019-04-16T23:57:11.606Z,8.25
